Latest Coastal Weather Observations for Smithton

IDT60701

Issued at 3:22 pm EST Sunday 18 August 2019 (issued every 10 minutes, with the page automatically refreshed every 10 minutes)

About coastal observations | Map of coastal stations | Coastal observations for TAS | Marine services | Other Formats
Station Details ID: 091292 Name: SMITHTON AERODROME Lat: -40.83 Lon: 145.08 Height: 7.5 m
Data from the previous 72 hours. | See also: Recent months at Smithton
Date/Time
EST
Wind Sea
Height
m
Swell Vis
km
Cloud Weather Temp
°C
Press
hPa
Rain since
9am
mm
Dir  Spd
kts
Gust
kts
Height
m
Period
s
Dir
18/03:00pm N 10 13 - - - - - - Recent precip. 10.5 1000.5 2.0
18/02:30pm NNE 6 9 - - - - - - - 10.6 1000.7 1.8
18/02:00pm NW 7 9 - - - - - - - 10.9 1001.2 0.8
18/01:30pm NW 14 19 - - - - - - - 11.3 1001.8 0.2
18/01:00pm NNW 11 16 - - - - - - - 12.7 1001.8 0.0
18/12:30pm NNE 10 14 - - - - - - - 12.5 1002.2 0.0
18/12:00pm NE 11 15 - - - - - - - 12.7 1003.2 0.0
18/11:30am NE 11 17 - - - - - - - 12.4 1003.7 0.0
18/11:00am NE 14 18 - - - - - - - 12.6 1004.1 0.0
18/10:30am NE 14 18 - - - - - - - 12.6 1004.6 0.0
18/10:00am NE 13 19 - - - - - - - 12.5 1004.8 0.0
18/09:30am ENE 12 16 - - - - - - - 12.3 1005.3 0.0
18/09:00am NE 12 18 - - - - - - - 11.5 1005.8 0.0
18/08:30am ENE 11 15 - - - - - - - 11.3 1006.1 0.0
18/08:00am ENE 11 15 - - - - - - - 10.9 1006.7 0.0
18/07:30am NE 11 14 - - - - - - - 11.2 1007.3 0.0
18/07:00am NE 11 16 - - - - - - - 11.4 1007.5 0.0
18/06:30am NE 12 17 - - - - - - - 11.1 1007.4 0.0
18/06:00am NNE 13 18 - - - - - - - 11.4 1007.8 0.0
18/05:30am NE 13 19 - - - - - - - 11.2 1008.0 0.0
18/05:00am NE 13 18 - - - - - - - 11.3 1008.3 0.0
18/04:30am NE 13 16 - - - - - - - 11.3 1009.0 0.0
18/04:00am NE 10 14 - - - - - - - 10.9 1009.5 0.0
18/03:30am NE 12 15 - - - - - - - 11.0 1009.8 0.0
18/03:00am NE 12 17 - - - - - - - 11.0 1010.6 0.0
18/02:30am NE 15 19 - - - - - - - 10.8 1010.5 0.0
18/02:00am NE 13 18 - - - - - - - 10.9 1011.6 0.0
18/01:30am NE 14 18 - - - - - - - 11.1 1012.2 0.0
18/01:00am NE 15 19 - - - - - - - 10.9 1012.3 0.0
18/12:30am NE 14 17 - - - - - - - 10.7 1013.0 0.0
18/12:00am NE 13 18 - - - - - - - 10.8 1013.7 0.0
 
Date/Time
EST
Wind Sea
Height
m
Swell Vis
km
Cloud Weather Temp
°C
Press
hPa
Rain since
9am
mm
Dir  Spd
kts
Gust
kts
Height
m
Period
s
Dir
17/11:30pm NE 15 20 - - - - - - - 11.2 1014.5 0.0
17/11:00pm NE 14 21 - - - - - - - 11.0 1014.8 0.0
17/10:30pm NE 16 21 - - - - - - - 10.8 1014.8 0.0
17/10:00pm NE 16 21 - - - - - - - 10.6 1015.1 0.0
17/09:30pm NE 14 17 - - - - - - - 10.7 1015.9 0.0
17/09:00pm ENE 13 17 - - - - - - - 10.6 1016.1 0.0
17/08:30pm NE 13 18 - - - - - - - 10.3 1016.3 0.0
17/08:00pm NE 12 16 - - - - - - - 10.2 1016.5 0.0
17/07:30pm ENE 12 15 - - - - - - - 10.1 1016.8 0.0
17/07:00pm NE 13 17 - - - - - - - 10.5 1016.8 0.0
17/06:30pm NE 10 13 - - - - - - - 10.3 1017.4 0.0
17/06:00pm NE 9 12 - - - - - - - 10.2 1017.6 0.0
17/05:30pm NE 9 12 - - - - - - - 10.4 1017.8 0.0
17/05:00pm NE 9 12 - - - - - - - 10.7 1017.7 0.0
17/04:30pm NE 10 14 - - - - - - - 11.2 1017.8 0.0
17/04:00pm NE 11 14 - - - - - - - 11.6 1018.1 0.0
17/03:30pm NE 12 15 - - - - - - - 11.6 1018.2 0.0
17/03:00pm NE 11 15 - - - - - - - 12.2 1018.6 0.0
17/02:30pm NE 12 16 - - - - - - - 12.3 1018.7 0.0
17/02:00pm NE 12 15 - - - - - - - 12.1 1018.7 0.0
17/01:30pm NE 11 14 - - - - - - - 12.1 1019.3 0.0
17/01:00pm NE 9 12 - - - - - - - 12.3 1019.7 0.0
17/12:30pm NE 10 14 - - - - - - - 11.8 1020.1 0.0
17/12:00pm NE 11 15 - - - - - - - 12.1 1020.5 0.0
17/11:30am NE 9 13 - - - - - - - 11.7 1020.9 0.0
17/11:00am NE 9 12 - - - - - - - 11.5 1021.2 0.0
17/10:30am NE 9 12 - - - - - - - 10.5 1021.1 0.0
17/10:00am ENE 7 10 - - - - - - - 9.7 1021.4 0.0
17/09:30am E 3 6 - - - - - - - 7.7 1021.6 0.0
17/09:00am SSW 4 5 - - - - - - - 4.8 1021.6 0.6
17/08:30am SW 5 6 - - - - - - - 2.6 1021.5 0.6
17/08:00am S 4 6 - - - - - - - 1.5 1021.2 0.6
17/07:30am S 4 5 - - - - - - - -0.2 1021.2 0.6
17/07:00am S 4 5 - - - - - - - -0.3 1020.9 0.6
17/06:30am S 4 5 - - - - - - - 1.0 1020.4 0.6
17/06:00am S 5 5 - - - - - - - 0.5 1020.2 0.6
17/05:30am SSW 4 5 - - - - - - - 0.6 1020.0 0.6
17/05:00am SSW 4 5 - - - - - - - 0.4 1020.0 0.6
17/04:30am S 4 5 - - - - - - - 0.5 1019.9 0.6
17/04:00am SSW 6 7 - - - - - - - 1.1 1019.7 0.6
17/03:30am SSW 6 7 - - - - - - - 1.1 1019.6 0.6
17/03:00am S 6 7 - - - - - - - 1.6 1019.6 0.6
17/02:30am S 6 7 - - - - - - - 2.2 1019.6 0.6
17/02:00am SSW 7 8 - - - - - - - 1.7 1019.6 0.6
17/01:30am S 6 7 - - - - - - - 2.5 1019.4 0.4
17/01:00am S 5 6 - - - - - - - 4.4 1019.4 0.4
17/12:30am S 7 8 - - - - - - - 4.5 1019.1 0.4
17/12:00am SW 11 12 - - - - - - - 4.8 1019.1 0.4
 
Date/Time
EST
Wind Sea
Height
m
Swell Vis
km
Cloud Weather Temp
°C
Press
hPa
Rain since
9am
mm
Dir  Spd
kts
Gust
kts
Height
m
Period
s
Dir
16/11:30pm SW 7 7 - - - - - - - 2.3 1019.1 0.4
16/11:00pm WSW 2 4 - - - - - - - 3.1 1019.1 0.4
16/10:30pm CALM 0 0 - - - - - - - 3.9 1018.9 0.4
16/10:00pm SW 7 8 - - - - - - - 3.9 1018.7 0.4
16/09:30pm S 1 4 - - - - - - - 5.0 1018.5 0.4
16/09:00pm S 5 6 - - - - - - - 6.3 1018.1 0.4
16/08:30pm SSW 7 8 - - - - - - - 6.2 1017.6 0.4
16/08:00pm SSW 7 8 - - - - - - - 6.5 1017.2 0.4
16/07:30pm SW 9 11 - - - - - - - 7.1 1016.6 0.4
16/07:00pm SSW 12 15 - - - - - - - 7.9 1016.1 0.4
16/06:30pm SW 14 17 - - - - - - - 8.4 1015.5 0.4
16/06:00pm SW 15 19 - - - - - - - 8.8 1014.8 0.4
16/05:30pm SW 16 20 - - - - - - - 9.3 1014.0 0.4
16/05:00pm SW 15 21 - - - - - - - 10.1 1013.1 0.4
16/04:30pm SW 16 21 - - - - - - - 11.6 1012.4 0.4
16/04:00pm SSW 15 21 - - - - - - - 11.9 1011.4 0.4
16/03:30pm SSW 16 22 - - - - - - - 12.0 1011.0 0.4
16/03:01pm SSW 17 28 - - - - - - - 12.2 1010.6 0.4
16/03:00pm SSW 16 22 - - - - - - - 12.4 1010.6 0.4
16/02:30pm SSW 17 23 - - - - - - - 12.0 1010.3 0.4
16/02:00pm SSW 19 26 - - - - - - - 11.8 1009.7 0.4
16/01:30pm SSW 17 23 - - - - - - - 11.2 1009.4 0.4
16/01:00pm SSW 18 24 - - - - - - - 10.7 1009.1 0.4
16/12:30pm SW 15 21 - - - - - - - 11.3 1008.6 0.4
16/12:00pm SSW 11 14 - - - - - - - 11.6 1008.5 0.4
16/11:30am S 9 11 - - - - - - - 10.7 1008.5 0.4
16/11:00am S 10 15 - - - - - - - 10.2 1008.8 0.4
16/10:30am S 12 16 - - - - - - - 9.1 1008.9 0.4
16/10:00am S 13 16 - - - - - - - 8.8 1008.8 0.4
16/09:30am WSW 11 15 - - - - - - - 8.9 1008.8 0.2
16/09:00am ESE 7 9 - - - - - - Recent precip. 10.7 1008.3 20.2
16/08:30am E 10 13 - - - - - - - 10.2 1008.4 20.2
16/08:00am ENE 8 11 - - - - - - - 10.0 1008.6 19.6
16/07:30am ENE 8 11 - - - - - - - 9.6 1008.4 19.6
16/07:00am ENE 5 10 - - - - - - - 9.2 1008.5 19.6
16/06:30am SSE 1 5 - - - - - - - 8.3 1008.7 19.6
16/06:00am CALM 0 0 - - - - - - - 8.5 1009.1 19.4
16/05:30am SSE 3 4 - - - - - - - 8.8 1009.1 19.4
16/05:00am CALM 0 2 - - - - - - - 8.8 1009.4 19.4
16/04:30am SSW 4 6 - - - - - - - 9.1 1009.7 19.4
16/04:00am ESE 5 5 - - - - - - - 9.1 1009.7 19.4
16/03:30am NW 2 5 - - - - - - - 9.0 1010.5 19.4
16/03:00am CALM 0 0 - - - - - - - 9.2 1010.9 19.4
16/02:30am NW 1 3 - - - - - - - 9.5 1011.5 19.4
16/02:00am NW 2 4 - - - - - - - 9.8 1011.4 19.4
16/01:30am NW 1 3 - - - - - - - 10.2 1012.0 19.2
16/01:00am N 6 8 - - - - - - - 10.4 1012.6 18.4
16/12:30am WSW 5 6 - - - - - - - 10.4 1012.7 16.2
16/12:00am WNW 4 5 - - - - - - Rain 10.6 1012.7 15.2
 
Date/Time
EST
Wind Sea
Height
m
Swell Vis
km
Cloud Weather Temp
°C
Press
hPa
Rain since
9am
mm
Dir  Spd
kts
Gust
kts
Height
m
Period
s
Dir
15/11:30pm WNW 4 5 - - - - - - - 10.9 1012.7 13.4
15/11:00pm NNW 5 6 - - - - - - - 11.0 1013.3 9.0
15/10:30pm NNW 5 7 - - - - - - - 10.9 1013.4 6.4
15/10:00pm W 1 3 - - - - - - - 10.8 1013.3 5.8
15/09:30pm W 5 6 - - - - - - - 11.2 1013.5 5.4
15/09:00pm W 9 13 - - - - - - Recent precip. 11.5 1013.7 5.2
15/08:30pm WNW 5 6 - - - - - - - 11.5 1013.7 5.2
15/08:00pm NW 6 7 - - - - - - - 11.7 1013.7 4.6
15/07:30pm NW 9 12 - - - - - - - 11.8 1013.6 4.2
15/07:00pm NW 11 13 - - - - - - - 11.5 1013.6 2.8
15/06:30pm NW 13 19 - - - - - - - 11.5 1013.5 2.8
15/06:00pm NW 13 18 - - - - - - Recent precip. 11.6 1013.6 1.6
15/05:30pm NW 15 19 - - - - - - - 11.6 1013.5 1.2
15/05:00pm NW 11 16 - - - - - - - 11.6 1013.6 0.2
15/04:30pm NW 12 16 - - - - - - - 11.1 1013.7 0.2
15/04:00pm NW 10 14 - - - - - - - 11.1 1013.7 0.2
15/03:30pm NW 11 15 - - - - - - - 11.4 1013.6 0.2

Other formats

Comma delimited format used in spreadsheet applications
http://www.bom.gov.au/fwo/IDT60701/IDT60701.94953.axf

JavaScript Object Notation format (JSON) in row-major order
http://www.bom.gov.au/fwo/IDT60701/IDT60701.94953.json

Data quality

Most of these data are generated automatically and are frequently updated. Quality checks on data are not normally performed. It is possible for incorrect values to appear. Refer to information at About Latest Weather Observations and please check the disclaimer before using these data.